»·PEaware :: DAL821 KSLC-KABQ

DAL821 :: KSLC-KABQ

FLIGHT INFORMATION

Flight Status: Arrived
Operator:
Delta Air Lines
More flights by this operator :: More flights under this callsign
Pilot: Andre N. (13929)
Aircraft: AIRBUS A319
(A319)
More flights by this aircraft type
Origin: KSLC Salt Lake City Intl
United States
Destination: KABQ Albuquerque Intl Sunport
United States
More flights between these airports :: More routes between these airports
Route: +NSIGN5 MTU JNC J15 RSK ROSEI LOWBO3
File this flight plan on PilotEdge
Remarks:
Altitude:
(Current/Filed)
39,000ft
Speed:
(Current/Filed)
450kts
Departed: 12-Apr-18 01:43 PM
Arrived: 12-Apr-18 04:06 PM
Distance/Time
Traveled:
428nm/2:23
Distance/Time
To Go:
Arrived

Flight Plot

Page will automatically refresh every two minutes.

Flight plan parsing failed; only flown route is shown


Map Options




Map Legend


Flown Route
Filed Route
Departure Airport
Arrival Airport
Navaid (VOR, NDB)
Fix

Horizontal Profiles

Position Reports

Time Latitude Longitude Heading Altitude Ground
Speed
12-Apr-18 13:18 40.788268 -111.982045 103 4236ft 0kts
12-Apr-18 13:19 40.788268 -111.982045 103 4236ft 0kts
12-Apr-18 13:20 40.788268 -111.982045 103 4236ft 0kts
12-Apr-18 13:21 40.788269 -111.982045 103 4236ft 0kts
12-Apr-18 13:22 40.788268 -111.982045 103 4236ft 0kts
12-Apr-18 13:23 40.788269 -111.982045 103 4236ft 0kts
12-Apr-18 13:24 40.788269 -111.982045 103 4236ft 0kts
12-Apr-18 13:25 40.788268 -111.982045 103 4236ft 0kts
12-Apr-18 13:26 40.788268 -111.982045 103 4236ft 0kts
12-Apr-18 13:27 40.788269 -111.982045 103 4236ft 0kts
12-Apr-18 13:28 40.788268 -111.982045 103 4236ft 0kts
12-Apr-18 13:29 40.788290 -111.982172 103 4236ft 2kts
12-Apr-18 13:30 40.788224 -111.982838 40 4236ft 2kts
12-Apr-18 13:31 40.787970 -111.982960 3 4236ft 0kts
12-Apr-18 13:32 40.787971 -111.982960 3 4236ft 0kts
12-Apr-18 13:33 40.787971 -111.982960 3 4236ft 0kts
12-Apr-18 13:34 40.787971 -111.982960 3 4236ft 0kts
12-Apr-18 13:35 40.788124 -111.982945 4 4236ft 6kts
12-Apr-18 13:36 40.790516 -111.982916 356 4236ft 0kts
12-Apr-18 13:37 40.791998 -111.978882 84 4236ft 20kts
12-Apr-18 13:38 40.787442 -111.976788 174 4236ft 24kts
12-Apr-18 13:39 40.780832 -111.976005 174 4236ft 23kts
12-Apr-18 13:40 40.775100 -111.974857 174 4236ft 10kts
12-Apr-18 13:41 40.774822 -111.974795 163 4236ft 0kts
12-Apr-18 13:42 40.777223 -111.973431 353 4236ft 51kts
12-Apr-18 13:43 40.812581 -111.976140 349 5608ft 156kts
12-Apr-18 13:44 40.860798 -111.982395 349 7555ft 212kts
12-Apr-18 13:45 40.927641 -111.992417 350 9870ft 271kts
12-Apr-18 13:46 41.004769 -112.004112 351 11639ft 334kts
12-Apr-18 13:47 41.099772 -111.989869 33 14280ft 384kts
12-Apr-18 13:48 41.144904 -111.871104 99 16263ft 422kts
12-Apr-18 13:49 41.085534 -111.757094 166 18699ft 390kts
12-Apr-18 13:50 40.982372 -111.716741 168 20874ft 399kts
12-Apr-18 13:51 40.879846 -111.675150 168 23030ft 403kts
12-Apr-18 13:52 40.781167 -111.633596 161 26421ft 376kts
12-Apr-18 13:53 40.723159 -111.512930 117 27872ft 435kts
12-Apr-18 13:54 40.679582 -111.359085 117 28463ft 466kts
12-Apr-18 13:55 40.636141 -111.208298 118 28914ft 491kts
12-Apr-18 13:56 40.588505 -111.043714 118 30466ft 487kts
12-Apr-18 13:57 40.540695 -110.880144 118 31838ft 484kts
12-Apr-18 13:58 40.492743 -110.717131 118 33082ft 482kts
12-Apr-18 13:59 40.444325 -110.556171 123 34137ft 477kts
12-Apr-18 14:00 40.375124 -110.416020 141 34857ft 458kts
12-Apr-18 14:01 40.290407 -110.306179 145 35546ft 453kts
12-Apr-18 14:02 40.201794 -110.193255 145 36192ft 451kts
12-Apr-18 14:03 40.112505 -110.080450 145 36668ft 452kts
12-Apr-18 14:04 40.023044 -109.968761 145 37070ft 452kts
12-Apr-18 14:05 39.933276 -109.857108 145 37450ft 452kts
12-Apr-18 14:06 39.852287 -109.757039 145 37698ft 453kts
12-Apr-18 14:07 39.763379 -109.647516 145 38060ft 453kts
12-Apr-18 14:08 39.672098 -109.535104 146 38263ft 458kts
12-Apr-18 14:09 39.585773 -109.429491 146 38430ft 464kts
12-Apr-18 14:10 39.498192 -109.322474 146 38660ft 462kts
12-Apr-18 14:11 39.413763 -109.219186 147 38690ft 457kts
12-Apr-18 14:12 39.321198 -109.107047 147 38610ft 466kts
12-Apr-18 14:13 39.227034 -108.993317 147 38540ft 472kts
12-Apr-18 14:14 39.132977 -108.880155 147 38528ft 471kts
12-Apr-18 14:15 39.029050 -108.790311 166 38527ft 442kts
12-Apr-18 14:16 38.918562 -108.748746 177 38524ft 413kts
12-Apr-18 14:30 40.788268 -111.982045 103 4236ft 0kts
12-Apr-18 14:31 40.788268 -111.982045 103 4236ft 0kts
12-Apr-18 14:32 40.788268 -111.982045 103 4236ft 0kts
12-Apr-18 14:33 40.788268 -111.982045 103 4236ft 0kts
12-Apr-18 14:34 40.788268 -111.982045 103 4236ft 0kts
12-Apr-18 14:35 40.788245 -111.982294 104 4236ft 2kts
12-Apr-18 14:36 40.788090 -111.982912 25 4236ft 2kts
12-Apr-18 14:37 40.787911 -111.982964 3 4236ft 0kts
12-Apr-18 14:38 40.787911 -111.982964 3 4236ft 0kts
12-Apr-18 14:39 40.787911 -111.982964 3 4236ft 0kts
12-Apr-18 14:40 40.788186 -111.982931 5 4236ft 8kts
12-Apr-18 14:41 40.791785 -111.982110 86 4236ft 18kts
12-Apr-18 14:42 40.790032 -111.977074 174 4236ft 20kts
12-Apr-18 14:43 40.784312 -111.976419 174 4236ft 21kts
12-Apr-18 14:44 40.778543 -111.975282 166 4236ft 21kts
12-Apr-18 14:45 40.774522 -111.973911 47 4236ft 10kts
12-Apr-18 14:46 40.791125 -111.974992 351 4330ft 151kts
12-Apr-18 14:47 40.838267 -111.979531 350 6455ft 203kts
12-Apr-18 14:48 40.900954 -111.988519 350 9253ft 244kts
12-Apr-18 14:49 40.963265 -111.997783 350 12145ft 256kts
12-Apr-18 14:50 41.035519 -112.008447 346 14387ft 290kts
12-Apr-18 14:51 41.112955 -111.974557 41 15271ft 389kts
12-Apr-18 14:52 41.141404 -111.842560 101 17084ft 434kts
12-Apr-18 14:53 41.060001 -111.745966 169 19329ft 421kts
12-Apr-18 14:54 40.948312 -111.702890 168 21533ft 430kts
12-Apr-18 14:55 40.843427 -111.660347 168 23345ft 438kts
12-Apr-18 14:56 40.741804 -111.576798 121 25118ft 477kts
12-Apr-18 14:57 40.695007 -111.412310 113 26588ft 491kts
12-Apr-18 14:58 40.650082 -111.256151 114 27772ft 500kts
12-Apr-18 14:59 40.601159 -111.087169 114 29335ft 499kts
12-Apr-18 15:00 40.552894 -110.921761 114 30807ft 495kts
12-Apr-18 15:01 40.503910 -110.754969 114 32147ft 493kts
12-Apr-18 15:02 40.455168 -110.590103 115 33350ft 490kts
12-Apr-18 15:03 40.389484 -110.438610 134 34039ft 484kts
12-Apr-18 15:04 40.301817 -110.320490 143 34775ft 479kts
12-Apr-18 15:05 40.211466 -110.205457 143 35644ft 475kts
12-Apr-18 15:06 40.119121 -110.088633 143 36328ft 472kts
12-Apr-18 15:07 40.025028 -109.971137 143 36736ft 472kts
12-Apr-18 15:08 39.930831 -109.853995 143 36744ft 472kts
12-Apr-18 15:09 39.847683 -109.751259 144 36735ft 470kts
12-Apr-18 15:10 39.754717 -109.636767 143 36744ft 470kts
12-Apr-18 15:11 39.660964 -109.521185 146 36744ft 474kts
12-Apr-18 15:12 39.572757 -109.413366 147 36744ft 474kts
12-Apr-18 15:13 39.485777 -109.307057 147 36731ft 472kts
12-Apr-18 15:14 39.391914 -109.192576 147 36744ft 472kts
12-Apr-18 15:15 39.297305 -109.078003 147 36639ft 470kts
12-Apr-18 15:16 39.206365 -108.968223 148 36587ft 455kts
12-Apr-18 15:17 39.112678 -108.857092 151 36581ft 464kts
12-Apr-18 15:18 39.006815 -108.778876 171 36579ft 433kts
12-Apr-18 15:19 38.894845 -108.741495 177 36572ft 424kts
12-Apr-18 15:20 38.823413 -108.719389 177 36574ft 424kts
12-Apr-18 15:21 38.741834 -108.694244 177 36579ft 424kts
12-Apr-18 15:22 38.628540 -108.659547 177 36580ft 424kts
12-Apr-18 15:23 38.515633 -108.625035 177 36629ft 425kts
12-Apr-18 15:24 38.402348 -108.590541 177 36679ft 425kts
12-Apr-18 15:25 38.290180 -108.556511 177 36688ft 425kts
12-Apr-18 15:26 38.176612 -108.522142 177 36688ft 425kts
12-Apr-18 15:27 38.064105 -108.488201 177 36688ft 425kts
12-Apr-18 15:28 37.951144 -108.454227 177 36688ft 425kts
12-Apr-18 15:29 37.847480 -108.423161 177 36673ft 425kts
12-Apr-18 15:30 37.733993 -108.389278 177 36734ft 427kts
12-Apr-18 15:31 37.619177 -108.355064 177 37053ft 427kts
12-Apr-18 15:32 37.508868 -108.321889 177 37449ft 426kts
12-Apr-18 15:33 37.394702 -108.287929 177 37877ft 426kts
12-Apr-18 15:34 37.283978 -108.255233 177 38286ft 426kts
12-Apr-18 15:35 37.169781 -108.221639 177 38689ft 426kts
12-Apr-18 15:36 37.055441 -108.188089 177 38641ft 425kts
12-Apr-18 15:37 36.941386 -108.154764 177 38285ft 425kts
12-Apr-18 15:38 36.846066 -108.126989 177 37946ft 425kts
12-Apr-18 15:39 36.737534 -108.080566 164 37562ft 432kts
12-Apr-18 15:40 36.637044 -108.006406 155 37148ft 444kts
12-Apr-18 15:41 36.534849 -107.922206 155 36772ft 444kts
12-Apr-18 15:42 36.433691 -107.839080 155 36676ft 445kts
12-Apr-18 15:43 36.331443 -107.755302 155 36663ft 446kts
12-Apr-18 15:44 36.229199 -107.671824 156 34427ft 446kts
12-Apr-18 15:45 36.123345 -107.596491 164 31664ft 441kts
12-Apr-18 15:46 36.009437 -107.549450 172 28799ft 428kts
12-Apr-18 15:47 35.899210 -107.513724 172 25908ft 416kts
12-Apr-18 15:48 35.801763 -107.481574 172 23200ft 372kts
12-Apr-18 15:49 35.705359 -107.450380 173 20642ft 356kts
12-Apr-18 15:50 35.611825 -107.420535 173 18075ft 344kts
12-Apr-18 15:51 35.521799 -107.391871 171 15834ft 324kts
12-Apr-18 15:52 35.438292 -107.362125 156 14594ft 317kts
12-Apr-18 15:53 35.381668 -107.281934 126 14192ft 328kts
12-Apr-18 15:54 35.333765 -107.188601 126 13794ft 326kts
12-Apr-18 15:55 35.288049 -107.093265 117 13212ft 326kts
12-Apr-18 15:56 35.258667 -106.989410 111 11850ft 328kts
12-Apr-18 15:57 35.231436 -106.888541 112 9984ft 297kts
12-Apr-18 15:58 35.207291 -106.799869 112 9038ft 264kts
12-Apr-18 15:59 35.184409 -106.716323 113 9011ft 257kts
12-Apr-18 16:00 35.148836 -106.650373 135 8988ft 224kts
12-Apr-18 16:01 35.111720 -106.593857 135 8829ft 208kts
12-Apr-18 16:02 35.074513 -106.570717 213 7470ft 153kts
12-Apr-18 16:03 35.041335 -106.607530 226 5446ft 155kts
12-Apr-18 16:04 35.024916 -106.627479 228 5363ft 44kts
12-Apr-18 16:05 35.023004 -106.631280 331 5363ft 0kts
12-Apr-18 16:06 35.023004 -106.631280 331 5363ft 0kts
12-Apr-18 16:07 35.024448 -106.630072 44 5363ft 18kts
12-Apr-18 16:08 35.029652 -106.623809 44 5363ft 31kts
12-Apr-18 16:09 35.035985 -106.616160 45 5363ft 29kts
12-Apr-18 16:10 35.042560 -106.613805 359 5363ft 24kts
12-Apr-18 16:11 35.045561 -106.618458 269 5363ft 18kts
12-Apr-18 16:12 35.048231 -106.618862 138 5363ft 5kts
12-Apr-18 16:13 35.047758 -106.618581 154 5363ft 0kts
12-Apr-18 16:14 35.047758 -106.618581 154 5363ft 0kts

Navigation Log

Ident Type
Flight plan parsing failed, navigation log unavailable